Time;durP1;ratioP1;P1;durP2;ratioP2;P2;SDS_P1;SDS_P2;PMS_P1;PMS_P2;Temp;Humidity;BMP_temperature;BMP_pressure;BME280_temperature;BME280_humidity;BME280_pressure;Samples;Min_cycle;Max_cycle;Signal;HPM_P1;HPM_P2
2023/11/24 00:00:11;;;;;;;3.77;1.97;;;;;;;6.98;100.00;96145.78;5077454;28;20287;-70
2023/11/24 00:02:39;;;;;;;6.43;2.47;;;;;;;6.88;100.00;96141.63;5077737;28;20199;-70
2023/11/24 00:05:07;;;;;;;6.40;2.30;;;;;;;6.85;100.00;96132.28;5077696;28;20200;-70
2023/11/24 00:07:33;;;;;;;2.90;2.03;;;;;;;6.78;100.00;96131.28;5077400;28;20253;-70
2023/11/24 00:10:02;;;;;;;5.50;2.67;;;;;;;6.87;100.00;96132.13;5078197;28;20202;-70
2023/11/24 00:12:28;;;;;;;5.67;2.83;;;;;;;6.70;100.00;96127.81;5077839;28;20210;-70
2023/11/24 00:14:55;;;;;;;4.27;2.07;;;;;;;6.83;100.00;96109.88;5077483;28;20208;-70
2023/11/24 00:17:22;;;;;;;5.93;3.07;;;;;;;6.90;100.00;96103.03;5076925;28;20223;-70
2023/11/24 00:19:49;;;;;;;5.30;2.73;;;;;;;6.73;100.00;96096.06;5077155;28;20221;-70
2023/11/24 00:22:15;;;;;;;6.10;3.07;;;;;;;6.85;100.00;96089.59;5077767;28;20211;-70
2023/11/24 00:24:42;;;;;;;4.80;2.43;;;;;;;6.73;100.00;96085.59;5077155;28;20676;-70
2023/11/24 00:27:10;;;;;;;4.93;2.60;;;;;;;6.96;100.00;96076.19;5077189;28;20203;-70
2023/11/24 00:29:37;;;;;;;5.80;2.37;;;;;;;6.82;100.00;96079.41;5077242;28;20204;-70
2023/11/24 00:32:04;;;;;;;6.73;2.50;;;;;;;6.74;100.00;96074.94;5078069;28;20568;-70
2023/11/24 00:34:31;;;;;;;5.07;2.63;;;;;;;6.90;100.00;96067.16;5077046;28;20208;-71
2023/11/24 00:36:59;;;;;;;5.47;2.93;;;;;;;6.83;100.00;96073.19;5076667;28;20199;-71
2023/11/24 00:39:25;;;;;;;6.03;2.20;;;;;;;6.78;100.00;96083.31;5077202;28;20230;-70
2023/11/24 00:41:52;;;;;;;4.87;2.90;;;;;;;6.81;100.00;96075.13;5078260;28;20206;-71
2023/11/24 00:44:20;;;;;;;5.50;2.87;;;;;;;6.83;100.00;96087.09;5077291;28;20200;-70
2023/11/24 00:46:46;;;;;;;6.83;2.90;;;;;;;6.88;100.00;96084.03;5076553;28;21115;-70
2023/11/24 00:49:13;;;;;;;4.57;2.23;;;;;;;6.84;100.00;96077.47;5077703;28;20220;-70
2023/11/24 00:51:39;;;;;;;5.20;2.70;;;;;;;6.73;100.00;96072.50;5076998;28;21119;-70
2023/11/24 00:54:06;;;;;;;5.33;2.83;;;;;;;6.77;100.00;96065.97;5076730;28;20203;-70
2023/11/24 00:56:33;;;;;;;4.80;2.40;;;;;;;6.79;100.00;96054.34;5076464;28;20207;-69
2023/11/24 00:58:59;;;;;;;6.23;3.07;;;;;;;6.94;100.00;96042.31;5077070;28;20223;-69
2023/11/24 01:01:27;;;;;;;4.53;2.17;;;;;;;7.04;100.00;96037.75;5076450;28;20227;-70
2023/11/24 01:03:54;;;;;;;3.67;2.37;;;;;;;6.84;100.00;96030.31;5077150;28;20669;-70
2023/11/24 01:06:20;;;;;;;3.30;2.30;;;;;;;6.98;100.00;96029.72;5076406;28;20665;-70
2023/11/24 01:08:47;;;;;;;4.63;2.10;;;;;;;6.93;100.00;96034.59;5076723;28;20224;-70
2023/11/24 01:11:14;;;;;;;2.60;1.60;;;;;;;6.92;100.00;96017.25;5077010;28;20196;-70
2023/11/24 01:13:40;;;;;;;3.97;2.13;;;;;;;7.01;100.00;95984.84;5076738;28;20200;-71
2023/11/24 01:16:07;;;;;;;2.97;1.60;;;;;;;7.09;100.00;95982.22;5075919;28;20230;-70
2023/11/24 01:18:37;;;;;;;4.10;1.90;;;;;;;7.14;100.00;95969.47;5076654;28;20231;-70
2023/11/24 01:21:06;;;;;;;4.37;2.23;;;;;;;7.13;100.00;95975.69;5077173;28;21199;-70
2023/11/24 01:23:33;;;;;;;3.53;1.90;;;;;;;7.08;100.00;95972.75;5076480;28;20199;-70
2023/11/24 01:25:59;;;;;;;7.23;2.20;;;;;;;7.08;100.00;95968.31;5076187;28;20195;-70
2023/11/24 01:28:26;;;;;;;2.63;1.63;;;;;;;7.19;100.00;95969.81;5076977;28;20228;-70
2023/11/24 01:30:53;;;;;;;5.73;2.00;;;;;;;7.18;100.00;95968.16;5076612;28;21129;-70
2023/11/24 01:33:19;;;;;;;2.47;1.60;;;;;;;7.14;100.00;95956.38;5076351;28;20210;-70
2023/11/24 01:35:49;;;;;;;2.80;1.50;;;;;;;7.32;100.00;95953.44;5076202;28;20211;-70
2023/11/24 01:38:15;;;;;;;4.43;2.00;;;;;;;7.24;100.00;95955.22;5076372;28;20224;-70
2023/11/24 01:40:42;;;;;;;2.07;1.30;;;;;;;7.28;100.00;95936.41;5077041;28;20213;-70
2023/11/24 01:43:08;;;;;;;3.10;1.67;;;;;;;7.14;100.00;95930.16;5076467;28;20204;-70
2023/11/24 01:45:35;;;;;;;2.30;1.50;;;;;;;7.22;100.00;95941.47;5075682;28;20211;-70
2023/11/24 01:48:02;;;;;;;2.77;1.53;;;;;;;7.34;100.00;95948.84;5076703;28;20229;-70
2023/11/24 01:50:28;;;;;;;3.97;1.87;;;;;;;7.23;100.00;95939.66;5076850;28;20192;-70
2023/11/24 01:52:56;;;;;;;3.13;1.83;;;;;;;7.36;100.00;95941.63;5076167;28;20202;-70
2023/11/24 01:55:26;;;;;;;2.37;1.53;;;;;;;7.33;100.00;95938.50;5076467;28;20206;-70
2023/11/24 01:57:53;;;;;;;5.37;2.23;;;;;;;7.26;100.00;95943.59;5076158;28;20292;-70
2023/11/24 02:00:20;;;;;;;3.10;2.00;;;;;;;7.21;100.00;95941.66;5076579;28;20219;-70
2023/11/24 02:02:46;;;;;;;2.03;1.30;;;;;;;7.22;100.00;95948.50;5076161;28;20235;-70
2023/11/24 02:05:14;;;;;;;3.27;1.30;;;;;;;7.27;100.00;95950.47;5077111;28;20206;-70
2023/11/24 02:07:41;;;;;;;2.87;2.07;;;;;;;7.33;100.00;95944.59;5075779;28;20329;-70
2023/11/24 02:10:11;;;;;;;4.40;1.53;;;;;;;7.46;100.00;95944.91;5076793;28;20231;-70
2023/11/24 02:12:38;;;;;;;1.37;1.20;;;;;;;7.27;100.00;95950.47;5076205;28;20207;-70
2023/11/24 02:15:07;;;;;;;3.10;1.40;;;;;;;7.34;100.00;95940.16;5076301;28;20207;-69
2023/11/24 02:17:33;;;;;;;2.70;1.20;;;;;;;7.22;100.00;95944.09;5075636;28;21041;-70
2023/11/24 02:20:05;;;;;;;3.13;1.67;;;;;;;7.14;100.00;95954.59;5075948;28;20226;-70
2023/11/24 02:22:32;;;;;;;1.40;1.27;;;;;;;7.04;100.00;95929.50;5076740;28;20662;-70
2023/11/24 02:24:59;;;;;;;3.83;1.90;;;;;;;7.29;100.00;95931.97;5079828;28;20204;-70
2023/11/24 02:27:26;;;;;;;1.53;1.00;;;;;;;6.95;100.00;95933.94;5079823;28;20224;-70
2023/11/24 02:29:53;;;;;;;2.53;1.30;;;;;;;6.88;100.00;95929.50;5080039;28;20204;-69
2023/11/24 02:32:19;;;;;;;2.67;1.87;;;;;;;6.81;100.00;95921.47;5079084;28;20203;-70
2023/11/24 02:34:46;;;;;;;3.70;1.87;;;;;;;6.87;100.00;95913.00;5079386;28;20204;-69
2023/11/24 02:37:12;;;;;;;3.63;2.07;;;;;;;7.01;100.00;95927.22;5079261;28;20214;-70
2023/11/24 02:39:39;;;;;;;3.77;2.07;;;;;;;6.85;100.00;95924.59;5079588;28;20232;-70
2023/11/24 02:42:07;;;;;;;3.40;2.10;;;;;;;7.03;100.00;95918.22;5079065;28;20206;-69
2023/11/24 02:44:33;;;;;;;3.40;2.20;;;;;;;7.03;100.00;95910.38;5079332;28;20204;-69
2023/11/24 02:47:00;;;;;;;3.83;2.17;;;;;;;6.95;100.00;95912.97;5078578;28;20199;-70
2023/11/24 02:49:27;;;;;;;3.53;1.90;;;;;;;6.80;100.00;95913.78;5078714;28;20208;-70
2023/11/24 02:51:54;;;;;;;2.83;1.73;;;;;;;6.77;100.00;95901.84;5078924;28;20684;-69
2023/11/24 02:54:21;;;;;;;3.83;2.40;;;;;;;6.90;100.00;95906.59;5079284;28;20211;-70
2023/11/24 02:56:48;;;;;;;4.13;1.70;;;;;;;6.72;100.00;95898.03;5077641;28;20208;-69
2023/11/24 02:59:16;;;;;;;4.63;2.30;;;;;;;7.07;100.00;95888.09;5078810;28;20309;-70
2023/11/24 03:01:43;;;;;;;3.40;2.17;;;;;;;6.87;100.00;95899.91;5078421;28;20659;-70
2023/11/24 03:04:09;;;;;;;2.43;1.63;;;;;;;6.85;100.00;95886.13;5078607;28;20210;-71
2023/11/24 03:06:40;;;;;;;4.10;2.10;;;;;;;7.05;100.00;95879.59;5077963;28;21137;-71
2023/11/24 03:09:09;;;;;;;2.93;2.27;;;;;;;6.97;100.00;95868.28;5079854;28;20216;-70
2023/11/24 03:11:36;;;;;;;4.83;1.63;;;;;;;6.99;100.00;95863.72;5076118;28;20208;-70
2023/11/24 03:14:02;;;;;;;3.23;1.43;;;;;;;6.96;100.00;95866.66;5078861;28;20282;-70
2023/11/24 03:16:30;;;;;;;4.13;2.20;;;;;;;7.16;100.00;95860.91;5078856;28;20230;-71
2023/11/24 03:18:56;;;;;;;4.50;2.17;;;;;;;7.25;100.00;95859.09;5078579;28;20227;-71
2023/11/24 03:21:23;;;;;;;3.73;2.27;;;;;;;7.06;100.00;95862.88;5078369;28;20196;-70
2023/11/24 03:23:49;;;;;;;2.10;1.47;;;;;;;7.02;100.00;95860.75;5079224;28;20207;-70
2023/11/24 03:26:16;;;;;;;3.80;1.63;;;;;;;7.13;100.00;95847.31;5077995;28;20286;-71
2023/11/24 03:28:43;;;;;;;3.60;2.10;;;;;;;7.01;100.00;95853.88;5078182;28;20250;-69
2023/11/24 03:31:09;;;;;;;3.83;2.00;;;;;;;7.14;100.00;95855.03;5078946;28;20219;-70
2023/11/24 03:33:37;;;;;;;6.27;2.37;;;;;;;7.22;100.00;95856.78;5078496;28;20210;-69
2023/11/24 03:36:04;;;;;;;3.83;1.90;;;;;;;7.12;100.00;95869.28;5077765;28;20199;-70
2023/11/24 03:38:30;;;;;;;3.43;2.10;;;;;;;7.18;100.00;95861.56;5078788;28;20227;-70
2023/11/24 03:40:58;;;;;;;3.37;1.87;;;;;;;7.09;100.00;95864.34;5078138;28;20224;-70
2023/11/24 03:43:24;;;;;;;1.93;1.40;;;;;;;7.07;100.00;95859.28;5078237;28;20231;-70
2023/11/24 03:45:51;;;;;;;4.80;2.33;;;;;;;7.03;100.00;95860.59;5077398;28;20199;-69
2023/11/24 03:48:21;;;;;;;6.47;2.23;;;;;;;7.12;100.00;95858.78;5078442;28;20229;-70
2023/11/24 03:50:49;;;;;;;2.87;1.87;;;;;;;7.28;100.00;95856.97;5077932;28;20200;-70
2023/11/24 03:53:15;;;;;;;2.53;1.37;;;;;;;7.14;100.00;95851.56;5078106;28;20204;-69
2023/11/24 03:55:42;;;;;;;3.87;2.00;;;;;;;7.21;100.00;95856.00;5077379;28;20208;-71
2023/11/24 03:58:09;;;;;;;3.60;1.90;;;;;;;7.13;100.00;95849.94;5077775;28;20436;-69
2023/11/24 04:00:36;;;;;;;4.77;2.20;;;;;;;7.21;100.00;95857.81;5078170;28;20269;-69
2023/11/24 04:03:02;;;;;;;2.07;1.70;;;;;;;7.17;100.00;95851.25;5078195;28;20289;-70
2023/11/24 04:05:29;;;;;;;17.63;2.67;;;;;;;7.12;100.00;95840.47;5077864;28;20214;-70
2023/11/24 04:07:57;;;;;;;4.13;1.90;;;;;;;7.19;100.00;95834.38;5077804;28;20233;-69
2023/11/24 04:10:24;;;;;;;4.27;2.27;;;;;;;7.23;100.00;95837.47;5078438;28;20211;-70
2023/11/24 04:12:51;;;;;;;3.40;1.60;;;;;;;7.17;100.00;95827.69;5078140;28;20215;-69
2023/11/24 04:15:18;;;;;;;2.50;1.77;;;;;;;7.26;100.00;95812.56;5077584;28;20207;-71
2023/11/24 04:17:46;;;;;;;1.60;1.40;;;;;;;7.17;100.00;95812.78;5077892;28;20220;-69
2023/11/24 04:20:13;;;;;;;4.73;2.30;;;;;;;7.18;100.00;95798.69;5078857;28;20234;-71
2023/11/24 04:22:39;;;;;;;3.90;2.17;;;;;;;7.15;100.00;95799.00;5077173;28;20208;-70
2023/11/24 04:25:10;;;;;;;2.23;1.40;;;;;;;7.24;100.00;95800.63;5077446;28;20219;-69
2023/11/24 04:27:37;;;;;;;3.57;1.83;;;;;;;7.24;100.00;95794.56;5077599;28;20220;-69
2023/11/24 04:30:04;;;;;;;6.37;2.63;;;;;;;7.17;100.00;95794.44;5077625;28;20672;-71
2023/11/24 04:32:30;;;;;;;3.67;2.43;;;;;;;7.22;100.00;95791.28;5077466;28;20204;-71
2023/11/24 04:34:57;;;;;;;3.07;1.90;;;;;;;7.31;100.00;95784.06;5077605;28;20257;-71
2023/11/24 04:37:23;;;;;;;3.70;2.10;;;;;;;7.25;100.00;95772.63;5077451;28;20220;-71
2023/11/24 04:39:50;;;;;;;2.97;1.83;;;;;;;7.16;100.00;95763.16;5077209;28;21132;-70
2023/11/24 04:42:18;;;;;;;5.83;1.97;;;;;;;7.28;100.00;95768.69;5077282;28;20202;-70
2023/11/24 04:44:45;;;;;;;2.77;1.60;;;;;;;7.39;100.00;95752.59;5077665;28;20211;-70
2023/11/24 04:47:12;;;;;;;3.97;1.57;;;;;;;7.23;100.00;95757.09;5076241;28;20200;-71
2023/11/24 04:49:39;;;;;;;2.97;1.60;;;;;;;7.22;100.00;95762.47;5077391;28;20206;-69
2023/11/24 04:52:06;;;;;;;3.27;1.50;;;;;;;7.29;100.00;95744.13;5076693;28;20251;-71
2023/11/24 04:54:32;;;;;;;2.00;1.40;;;;;;;7.33;100.00;95748.03;5077194;28;20200;-70
2023/11/24 04:57:00;;;;;;;2.07;1.37;;;;;;;7.34;100.00;95730.50;5075663;28;20204;-70
2023/11/24 04:59:27;;;;;;;2.07;1.33;;;;;;;7.48;100.00;95727.16;5077510;28;20287;-70
2023/11/24 05:01:54;;;;;;;2.60;1.20;;;;;;;7.44;100.00;95724.06;5076727;28;20899;-70
2023/11/24 05:04:21;;;;;;;2.43;1.50;;;;;;;7.29;100.00;95724.94;5076661;28;20200;-70
2023/11/24 05:06:48;;;;;;;2.00;1.30;;;;;;;7.30;100.00;95723.97;5076566;28;20206;-70
2023/11/24 05:09:16;;;;;;;1.90;1.20;;;;;;;7.31;100.00;95708.06;5076648;28;20215;-71
2023/11/24 05:11:43;;;;;;;1.17;0.77;;;;;;;7.27;100.00;95708.59;5076499;28;20203;-70
2023/11/24 05:14:09;;;;;;;1.97;1.40;;;;;;;7.46;100.00;95692.47;5076610;28;20204;-69
2023/11/24 05:16:37;;;;;;;5.97;1.80;;;;;;;7.51;100.00;95714.53;5076716;28;20235;-71
2023/11/24 05:19:04;;;;;;;2.70;1.23;;;;;;;7.47;100.00;95709.78;5076546;28;21065;-71
2023/11/24 05:21:31;;;;;;;1.30;0.90;;;;;;;7.46;100.00;95711.63;5076696;28;21260;-71
2023/11/24 05:23:57;;;;;;;1.53;1.23;;;;;;;7.55;100.00;95704.53;5077280;28;20583;-70
2023/11/24 05:26:24;;;;;;;3.17;1.60;;;;;;;7.63;100.00;95704.50;5075353;28;20196;-70
2023/11/24 05:28:50;;;;;;;2.83;1.20;;;;;;;7.63;100.00;95709.75;5076750;28;20991;-69
2023/11/24 05:31:17;;;;;;;3.17;1.27;;;;;;;7.65;100.00;95718.22;5077535;28;20196;-71
2023/11/24 05:33:45;;;;;;;2.30;1.13;;;;;;;7.65;100.00;95708.59;5076088;28;21006;-70
2023/11/24 05:36:11;;;;;;;1.63;1.23;;;;;;;7.59;100.00;95717.13;5075779;28;20210;-70
2023/11/24 05:38:38;;;;;;;1.23;1.13;;;;;;;7.59;100.00;95700.59;5077553;28;20683;-70
2023/11/24 05:41:04;;;;;;;1.83;1.20;;;;;;;7.59;100.00;95693.53;5076457;28;20227;-70
2023/11/24 05:43:31;;;;;;;2.73;1.30;;;;;;;7.55;100.00;95702.72;5076538;28;20207;-70
2023/11/24 05:45:58;;;;;;;1.37;0.80;;;;;;;7.63;100.00;95692.19;5076057;28;20208;-71
2023/11/24 05:48:25;;;;;;;2.40;1.60;;;;;;;7.58;100.00;95697.13;5076875;28;20582;-71
2023/11/24 05:50:54;;;;;;;1.23;1.00;;;;;;;7.75;100.00;95690.00;5076408;28;20200;-70
2023/11/24 05:53:20;;;;;;;1.00;0.87;;;;;;;7.64;100.00;95688.59;5076498;28;20288;-69
2023/11/24 05:55:47;;;;;;;1.70;1.20;;;;;;;7.79;100.00;95681.63;5076606;28;20208;-71
2023/11/24 05:58:13;;;;;;;3.83;1.57;;;;;;;7.65;100.00;95682.34;5077627;28;20220;-70
2023/11/24 06:00:40;;;;;;;2.77;1.17;;;;;;;7.82;100.00;95683.09;5080119;28;20608;-69
2023/11/24 06:03:06;;;;;;;1.43;1.03;;;;;;;7.74;100.00;95691.81;5080721;28;20204;-70
2023/11/24 06:05:33;;;;;;;1.37;1.10;;;;;;;7.75;100.00;95688.22;5079745;28;20261;-70
2023/11/24 06:08:03;;;;;;;2.57;1.43;;;;;;;7.89;100.00;95685.66;5079810;28;20220;-71
2023/11/24 06:10:29;;;;;;;0.83;0.83;;;;;;;7.75;100.00;95696.06;5080607;28;20200;-70
2023/11/24 06:12:56;;;;;;;1.70;1.20;;;;;;;7.82;100.00;95689.13;5079890;28;20200;-70
2023/11/24 06:15:22;;;;;;;0.97;0.83;;;;;;;7.89;100.00;95690.06;5079520;28;20211;-70
2023/11/24 06:17:49;;;;;;;1.57;1.00;;;;;;;7.94;100.00;95685.09;5080257;28;20235;-71
2023/11/24 06:20:16;;;;;;;6.57;1.50;;;;;;;7.92;100.00;95702.84;5080285;28;20219;-70
2023/11/24 06:22:43;;;;;;;2.40;1.03;;;;;;;7.89;100.00;95695.31;5079445;28;20200;-69
2023/11/24 06:25:11;;;;;;;2.93;1.47;;;;;;;7.95;100.00;95698.03;5079488;28;20210;-71
2023/11/24 06:27:37;;;;;;;1.83;1.00;;;;;;;7.71;100.00;95731.47;5078941;28;20228;-71
2023/11/24 06:30:06;;;;;;;3.10;1.67;;;;;;;7.86;100.00;95727.13;5079644;28;20203;-72
2023/11/24 06:32:33;;;;;;;1.00;0.80;;;;;;;7.67;100.00;95727.56;5079822;28;20280;-72
2023/11/24 06:35:00;;;;;;;2.03;1.40;;;;;;;7.65;100.00;95740.03;5079154;28;20208;-70
2023/11/24 06:37:26;;;;;;;2.90;1.37;;;;;;;7.55;100.00;95743.88;5078688;28;20228;-72
2023/11/24 06:39:53;;;;;;;1.70;1.10;;;;;;;7.49;100.00;95745.34;5079194;28;20295;-71
2023/11/24 06:42:20;;;;;;;3.20;1.60;;;;;;;7.66;100.00;95744.31;5078832;28;20196;-72
2023/11/24 06:44:47;;;;;;;5.80;1.70;;;;;;;7.47;100.00;95747.34;5080218;28;20200;-70
2023/11/24 06:47:13;;;;;;;7.37;2.30;;;;;;;7.56;100.00;95729.75;5078738;28;21008;-73
2023/11/24 06:49:45;;;;;;;7.00;2.10;;;;;;;7.70;100.00;95737.72;5079260;28;20226;-72
2023/11/24 06:52:12;;;;;;;6.73;2.97;;;;;;;7.46;100.00;95729.97;5079873;28;20195;-71
2023/11/24 06:54:38;;;;;;;2.83;1.60;;;;;;;7.44;100.00;95741.59;5079575;28;20673;-70
2023/11/24 06:57:05;;;;;;;1.70;1.20;;;;;;;7.24;100.00;95729.88;5077519;28;20200;-68
2023/11/24 06:59:33;;;;;;;1.37;1.17;;;;;;;7.35;100.00;95748.66;5079790;28;20314;-69
2023/11/24 07:01:59;;;;;;;5.03;1.13;;;;;;;7.21;100.00;95739.91;5079044;28;20984;-72
2023/11/24 07:04:26;;;;;;;4.13;0.67;;;;;;;7.18;100.00;95734.97;5079079;28;20208;-70
2023/11/24 07:06:52;;;;;;;1.77;0.67;;;;;;;7.10;100.00;95727.94;5078850;28;20207;-71
2023/11/24 07:09:20;;;;;;;0.43;0.43;;;;;;;7.01;100.00;95731.56;5078299;28;20216;-71
2023/11/24 07:11:48;;;;;;;3.17;1.00;;;;;;;7.09;100.00;95735.97;5079363;28;20206;-68
2023/11/24 07:14:14;;;;;;;3.57;0.90;;;;;;;7.03;100.00;95736.66;5078960;28;20208;-72
2023/11/24 07:16:42;;;;;;;1.47;1.13;;;;;;;7.01;100.00;95734.19;5078697;28;20713;-71
2023/11/24 07:19:10;;;;;;;0.73;0.53;;;;;;;6.89;100.00;95737.34;5078544;28;20649;-69
2023/11/24 07:21:38;;;;;;;0.70;0.70;;;;;;;6.85;100.00;95722.97;5078753;28;20701;-70
2023/11/24 07:24:06;;;;;;;1.37;1.27;;;;;;;6.98;100.00;95720.63;5075986;28;20200;-71
2023/11/24 07:26:32;;;;;;;0.70;0.70;;;;;;;6.79;100.00;95723.63;5077845;28;20211;-71
2023/11/24 07:28:59;;;;;;;1.00;0.60;;;;;;;6.86;100.00;95716.72;5078612;28;20219;-71
2023/11/24 07:31:25;;;;;;;1.23;0.80;;;;;;;6.85;100.00;95717.72;5078585;28;20192;-71
2023/11/24 07:33:55;;;;;;;1.37;0.90;;;;;;;6.88;100.00;95712.16;5078264;28;20571;-71
2023/11/24 07:36:22;;;;;;;1.10;1.00;;;;;;;6.83;100.00;95711.81;5077080;28;20728;-71
2023/11/24 07:38:48;;;;;;;5.00;0.93;;;;;;;6.83;100.00;95706.59;5078815;28;20299;-70
2023/11/24 07:41:15;;;;;;;0.60;0.60;;;;;;;6.86;100.00;95698.38;5077777;28;20599;-71
2023/11/24 07:43:42;;;;;;;0.60;0.60;;;;;;;6.77;100.00;95702.84;5078170;28;20203;-72
2023/11/24 07:46:10;;;;;;;0.50;0.50;;;;;;;6.75;100.00;95699.56;5076323;28;20265;-71
2023/11/24 07:48:37;;;;;;;1.77;0.70;;;;;;;6.93;100.00;95694.13;5075034;28;20239;-72
2023/11/24 07:51:05;;;;;;;1.57;0.50;;;;;;;7.00;100.00;95698.53;5078131;28;20200;-71
2023/11/24 07:53:32;;;;;;;24.23;1.20;;;;;;;6.77;100.00;95692.38;5078121;28;20253;-70
2023/11/24 07:55:59;;;;;;;3.60;0.80;;;;;;;6.86;100.00;95682.69;5077113;28;20211;-71
2023/11/24 07:58:28;;;;;;;1.47;1.10;;;;;;;6.82;100.00;95687.47;5076004;28;20639;-71
2023/11/24 08:00:54;;;;;;;0.50;0.50;;;;;;;6.74;100.00;95676.19;5078182;28;20281;-70
2023/11/24 08:03:21;;;;;;;1.27;0.80;;;;;;;6.82;100.00;95673.53;5077219;28;21125;-70
2023/11/24 08:05:50;;;;;;;0.80;0.63;;;;;;;6.65;100.00;95669.31;5077155;28;20240;-70
2023/11/24 08:08:18;;;;;;;4.23;1.20;;;;;;;6.83;100.00;95656.84;5077695;28;21361;-71
2023/11/24 08:10:45;;;;;;;3.60;1.03;;;;;;;6.67;100.00;95656.91;5078214;28;20575;-70
2023/11/24 08:13:11;;;;;;;2.83;0.83;;;;;;;6.55;100.00;95652.97;5077534;28;20203;-70
2023/11/24 08:15:38;;;;;;;4.10;1.70;;;;;;;6.81;100.00;95650.94;5077348;28;20300;-70
2023/11/24 08:18:04;;;;;;;2.67;2.10;;;;;;;6.77;100.00;95652.25;5076916;28;20230;-70
2023/11/24 08:20:31;;;;;;;8.13;3.60;;;;;;;6.81;100.00;95650.94;5076620;28;20750;-70
2023/11/24 08:22:58;;;;;;;13.27;3.33;;;;;;;6.85;100.00;95649.66;5077579;28;20211;-69
2023/11/24 08:25:25;;;;;;;73.30;17.70;;;;;;;6.94;100.00;95646.81;5077132;28;20223;-70
2023/11/24 08:27:52;;;;;;;71.37;19.87;;;;;;;6.74;100.00;95642.13;5077364;28;20228;-71
2023/11/24 08:30:18;;;;;;;153.80;35.03;;;;;;;6.83;100.00;95641.13;5076996;28;20196;-71
2023/11/24 08:32:46;;;;;;;138.20;29.80;;;;;;;6.76;100.00;95627.09;5077780;28;20912;-70
2023/11/24 08:35:14;;;;;;;13.80;5.73;;;;;;;6.79;100.00;95631.97;5077432;28;20211;-70
2023/11/24 08:37:40;;;;;;;0.70;0.70;;;;;;;6.68;100.00;95629.72;5076670;28;20988;-70
2023/11/24 08:40:10;;;;;;;3.70;0.80;;;;;;;6.76;100.00;95614.00;5073621;28;20231;-70
2023/11/24 08:42:39;;;;;;;1.03;0.83;;;;;;;6.91;100.00;95623.59;5076193;28;20312;-70
2023/11/24 08:45:07;;;;;;;2.33;0.90;;;;;;;7.02;100.00;95614.53;5076235;28;20200;-70
2023/11/24 08:47:33;;;;;;;0.83;0.63;;;;;;;6.95;100.00;95613.56;5076130;28;20235;-70
2023/11/24 08:50:00;;;;;;;1.83;1.10;;;;;;;6.87;100.00;95613.63;5076651;28;20215;-70
2023/11/24 08:52:26;;;;;;;2.50;1.40;;;;;;;7.00;100.00;95613.88;5075943;28;20204;-70
2023/11/24 08:54:53;;;;;;;1.60;1.03;;;;;;;6.95;100.00;95608.34;5075100;28;20214;-70
2023/11/24 08:57:19;;;;;;;4.23;1.00;;;;;;;6.93;100.00;95600.66;5073495;28;20694;-70
2023/11/24 08:59:47;;;;;;;2.20;1.07;;;;;;;7.21;100.00;95598.41;5075339;28;20200;-70
2023/11/24 09:02:13;;;;;;;4.70;1.30;;;;;;;7.02;100.00;95598.84;5075908;28;20223;-70
2023/11/24 09:04:40;;;;;;;2.20;1.30;;;;;;;7.02;100.00;95596.22;5077037;28;20648;-70
2023/11/24 09:07:08;;;;;;;2.57;1.00;;;;;;;6.84;100.00;95595.63;5076111;28;20204;-70
2023/11/24 09:09:36;;;;;;;2.40;1.20;;;;;;;6.97;100.00;95595.91;5076256;28;20698;-70
2023/11/24 09:12:02;;;;;;;2.77;1.27;;;;;;;7.06;100.00;95600.13;5076463;28;20235;-70
2023/11/24 09:14:29;;;;;;;3.10;1.40;;;;;;;6.99;100.00;95591.31;5076719;28;20207;-70
2023/11/24 09:16:57;;;;;;;1.50;1.03;;;;;;;7.00;100.00;95592.94;5076044;28;20203;-70
2023/11/24 09:19:24;;;;;;;1.23;0.90;;;;;;;7.04;100.00;95597.69;5075834;28;20216;-70
2023/11/24 09:21:50;;;;;;;5.23;1.10;;;;;;;7.04;100.00;95600.28;5076567;28;20231;-70
2023/11/24 09:24:17;;;;;;;2.23;0.97;;;;;;;6.98;100.00;95592.31;5076789;28;20203;-70
2023/11/24 09:26:44;;;;;;;2.13;0.90;;;;;;;6.91;100.00;95580.88;5075522;28;20208;-70
2023/11/24 09:29:11;;;;;;;1.77;1.20;;;;;;;6.93;100.00;95589.38;5076530;28;20224;-70
2023/11/24 09:31:38;;;;;;;4.70;1.30;;;;;;;6.96;100.00;95594.25;5077422;28;20201;-70
2023/11/24 09:34:07;;;;;;;3.83;1.23;;;;;;;6.96;100.00;95599.50;5080517;28;20199;-69
2023/11/24 09:36:33;;;;;;;1.37;1.10;;;;;;;6.81;100.00;95581.09;5080205;28;20210;-70
2023/11/24 09:39:00;;;;;;;1.90;0.80;;;;;;;6.91;100.00;95578.25;5080788;28;20219;-70
2023/11/24 09:41:28;;;;;;;0.80;0.60;;;;;;;6.79;100.00;95574.38;5079883;28;20228;-69
2023/11/24 09:43:57;;;;;;;2.23;0.60;;;;;;;7.05;100.00;95559.19;5080919;28;20204;-70
2023/11/24 09:46:25;;;;;;;0.67;0.53;;;;;;;6.79;100.00;95561.28;5080191;28;20206;-69
2023/11/24 09:48:52;;;;;;;1.93;0.50;;;;;;;6.99;100.00;95552.03;5079749;28;20251;-70
2023/11/24 09:51:20;;;;;;;5.13;1.00;;;;;;;6.84;100.00;95559.78;5079982;28;20200;-68
2023/11/24 09:53:46;;;;;;;0.97;0.77;;;;;;;6.80;100.00;95553.25;5079809;28;21024;-70
2023/11/24 09:56:13;;;;;;;0.80;0.70;;;;;;;6.89;100.00;95535.72;5080092;28;20212;-68
2023/11/24 09:58:42;;;;;;;1.50;0.97;;;;;;;6.89;100.00;95533.09;5079717;28;20258;-70
2023/11/24 10:01:15;;;;;;;4.37;1.63;;;;;;;7.08;100.00;95524.81;5080708;28;20227;-71
2023/11/24 10:03:46;;;;;;;5.90;2.93;;;;;;;7.22;100.00;95521.41;5079914;28;20196;-70
2023/11/24 10:06:13;;;;;;;3.53;1.80;;;;;;;7.07;100.00;95520.56;5079310;28;20211;-70
2023/11/24 10:08:42;;;;;;;2.00;0.90;;;;;;;7.32;100.00;95505.31;5079696;28;20223;-70
2023/11/24 10:11:13;;;;;;;5.27;1.30;;;;;;;7.40;100.00;95497.38;5079594;28;20911;-69
2023/11/24 10:13:41;;;;;;;3.80;0.87;;;;;;;7.24;100.00;95491.44;5079270;28;20340;-70
2023/11/24 10:16:08;;;;;;;1.17;1.00;;;;;;;7.28;100.00;95487.50;5079382;28;20221;-70
2023/11/24 10:18:34;;;;;;;2.50;1.50;;;;;;;7.16;100.00;95462.69;5080686;28;20234;-71
2023/11/24 10:21:01;;;;;;;3.63;1.20;;;;;;;7.29;100.00;95457.66;5079685;28;20204;-70
2023/11/24 10:23:29;;;;;;;1.57;1.13;;;;;;;7.48;100.00;95463.22;5079077;28;20980;-70
2023/11/24 10:25:57;;;;;;;3.20;1.70;;;;;;;7.55;100.00;95458.94;5078700;28;20200;-70
2023/11/24 10:28:25;;;;;;;5.77;1.20;;;;;;;7.54;100.00;95452.06;5080118;28;20220;-70
2023/11/24 10:30:51;;;;;;;0.87;0.83;;;;;;;7.53;100.00;95447.00;5079302;28;20207;-70
2023/11/24 10:33:19;;;;;;;4.37;1.40;;;;;;;7.40;100.00;95444.97;5079153;28;20207;-71
2023/11/24 10:35:47;;;;;;;6.30;1.67;;;;;;;7.52;100.00;95459.28;5078807;28;20204;-70
2023/11/24 10:38:19;;;;;;;1.57;1.10;;;;;;;7.65;100.00;95440.31;5079490;28;20228;-70
2023/11/24 10:40:49;;;;;;;5.47;1.30;;;;;;;7.52;100.00;95429.63;5079105;28;20215;-70
2023/11/24 10:43:19;;;;;;;4.50;1.07;;;;;;;7.60;100.00;95432.16;5078376;28;21310;-70
2023/11/24 10:45:49;;;;;;;4.07;1.30;;;;;;;7.64;100.00;95426.41;5077938;28;20234;-70
2023/11/24 10:48:20;;;;;;;1.57;1.23;;;;;;;7.51;100.00;95418.34;5078955;28;20844;-70
2023/11/24 10:50:51;;;;;;;2.90;1.50;;;;;;;7.74;100.00;95423.50;5080167;28;20421;-70
2023/11/24 10:53:26;;;;;;;3.47;1.00;;;;;;;7.86;100.00;95422.88;5079018;28;20293;-70
2023/11/24 10:55:54;;;;;;;2.37;1.00;;;;;;;7.90;100.00;95411.03;5079188;28;20207;-70
2023/11/24 10:58:22;;;;;;;3.23;1.37;;;;;;;7.96;100.00;95416.38;5079452;28;20219;-70
2023/11/24 11:00:49;;;;;;;2.60;1.00;;;;;;;7.80;100.00;95418.34;5079104;28;20257;-70
2023/11/24 11:03:16;;;;;;;7.97;1.70;;;;;;;7.88;100.00;95410.44;5078341;28;20230;-70
2023/11/24 11:05:52;;;;;;;1.47;1.10;;;;;;;7.92;100.00;95403.81;5078726;28;20204;-70
2023/11/24 11:08:27;;;;;;;1.50;0.90;;;;;;;8.01;100.00;95394.88;5078672;28;20227;-71
2023/11/24 11:11:15;;;;;;;2.23;1.10;;;;;;;8.17;100.00;95390.28;5079401;28;20207;-70
2023/11/24 11:13:44;;;;;;;0.97;0.80;;;;;;;8.23;100.00;95386.09;5078802;28;20215;-70
2023/11/24 11:16:13;;;;;;;1.40;1.00;;;;;;;8.35;100.00;95361.00;5078768;28;20214;-70
2023/11/24 11:18:40;;;;;;;4.60;1.33;;;;;;;8.40;100.00;95361.25;5079257;28;20261;-70
2023/11/24 11:21:11;;;;;;;1.90;1.10;;;;;;;8.30;100.00;95352.84;5078874;28;20200;-70
2023/11/24 11:23:38;;;;;;;5.90;1.20;;;;;;;8.26;100.00;95359.47;5078427;28;20219;-70
2023/11/24 11:26:04;;;;;;;1.37;0.90;;;;;;;8.33;100.00;95357.75;5078241;28;20206;-71
2023/11/24 11:28:34;;;;;;;2.47;1.63;;;;;;;8.30;100.00;95343.19;5078402;28;20231;-70
2023/11/24 11:31:33;;;;;;;0.90;0.70;;;;;;;8.41;100.00;95332.19;5078634;28;20204;-70
2023/11/24 11:34:12;;;;;;;1.47;1.00;;;;;;;8.44;100.00;95333.63;5079318;28;20206;-70